createdAt,value
2023-04-18T00:00:43.231Z,99176.25
2023-04-18T00:03:10.042Z,99175.59
2023-04-18T00:05:36.962Z,99172.28
2023-04-18T00:08:03.900Z,99173.47
2023-04-18T00:10:30.556Z,99175.28
2023-04-18T00:12:58.373Z,99169.47
2023-04-18T00:15:25.939Z,99170.50
2023-04-18T00:17:56.712Z,99161.91
2023-04-18T00:20:26.137Z,99158.66
2023-04-18T00:22:53.331Z,99157.03
2023-04-18T00:25:19.937Z,99150.22
2023-04-18T00:27:48.416Z,99158.22
2023-04-18T00:30:15.433Z,99144.47
2023-04-18T00:32:42.241Z,99145.44
2023-04-18T00:35:09.156Z,99149.00
2023-04-18T00:37:35.817Z,99148.34
2023-04-18T00:40:02.433Z,99148.59
2023-04-18T00:42:31.010Z,99153.97
2023-04-18T00:44:57.600Z,99151.41
2023-04-18T00:47:25.527Z,99149.00
2023-04-18T00:49:52.454Z,99156.09
2023-04-18T00:52:19.673Z,99148.41
2023-04-18T00:54:47.384Z,99152.03
2023-04-18T00:57:14.245Z,99151.22
2023-04-18T00:59:40.921Z,99150.50
2023-04-18T01:02:07.537Z,99153.28
2023-04-18T01:04:34.312Z,99151.69
2023-04-18T01:07:02.820Z,99144.00
2023-04-18T01:09:29.632Z,99143.28
2023-04-18T01:11:56.436Z,99138.13
2023-04-18T01:14:23.461Z,99139.06
2023-04-18T01:16:50.090Z,99140.03
2023-04-18T01:19:19.493Z,99138.41
2023-04-18T01:21:46.195Z,99134.25
2023-04-18T01:24:15.591Z,99130.88
2023-04-18T01:26:44.208Z,99130.97
2023-04-18T01:29:11.485Z,99125.94
2023-04-18T01:31:39.600Z,99121.63
2023-04-18T01:34:06.897Z,99121.75
2023-04-18T01:36:36.072Z,99125.31
2023-04-18T01:39:03.041Z,99127.22
2023-04-18T01:41:32.857Z,99117.72
2023-04-18T01:44:02.413Z,99116.00
2023-04-18T01:46:29.593Z,99113.59
2023-04-18T01:48:57.850Z,99111.91
2023-04-18T01:51:25.902Z,99107.03
2023-04-18T01:53:54.387Z,99111.34
2023-04-18T01:56:21.301Z,99102.81
2023-04-18T01:58:47.993Z,99110.69
2023-04-18T02:01:14.978Z,99109.91
2023-04-18T02:03:43.142Z,99109.31
2023-04-18T02:06:10.193Z,99105.91
2023-04-18T02:08:36.810Z,99102.56
2023-04-18T02:11:05.606Z,99104.31
2023-04-18T02:13:33.917Z,99124.50
2023-04-18T02:16:02.222Z,99103.03
2023-04-18T02:18:28.815Z,99112.66
2023-04-18T02:20:56.619Z,99104.19
2023-04-18T02:23:23.224Z,99101.56
2023-04-18T02:25:50.874Z,99101.72
2023-04-18T02:28:17.551Z,99106.09
2023-04-18T02:30:44.256Z,99109.00
2023-04-18T02:33:10.868Z,99103.66
2023-04-18T02:35:39.956Z,99099.56
2023-04-18T02:38:06.588Z,99105.59
2023-04-18T02:40:33.224Z,99102.06
2023-04-18T02:43:00.489Z,99095.28
2023-04-18T02:45:28.209Z,99098.66
2023-04-18T02:47:56.381Z,99097.78
2023-04-18T02:50:24.307Z,99097.88
2023-04-18T02:52:52.933Z,99101.41
2023-04-18T02:55:19.686Z,99098.94
2023-04-18T02:57:46.390Z,99099.97
2023-04-18T03:00:13.864Z,99100.09
2023-04-18T03:02:40.968Z,99098.59
2023-04-18T03:05:07.988Z,99091.72
2023-04-18T03:07:35.895Z,99080.53
2023-04-18T03:10:02.663Z,99084.94
2023-04-18T03:12:29.263Z,99091.06
2023-04-18T03:14:55.899Z,99093.78
2023-04-18T03:17:23.225Z,99105.06
2023-04-18T03:19:49.911Z,99095.56
2023-04-18T03:22:16.719Z,99102.38
2023-04-18T03:24:43.385Z,99092.81
2023-04-18T03:27:11.281Z,99097.94
2023-04-18T03:29:40.904Z,99099.59
2023-04-18T03:32:07.488Z,99096.94
2023-04-18T03:34:34.048Z,99096.00
2023-04-18T03:37:01.197Z,99097.72
2023-04-18T03:39:27.924Z,99100.19
2023-04-18T03:41:54.525Z,99100.09
2023-04-18T03:44:21.220Z,99096.56
2023-04-18T03:46:47.972Z,99099.16
2023-04-18T03:49:14.517Z,99099.97
2023-04-18T03:51:47.940Z,99101.88
2023-04-18T03:54:17.327Z,99097.47
2023-04-18T03:56:45.483Z,99100.88
2023-04-18T03:59:14.087Z,99096.56
2023-04-18T04:01:40.915Z,99094.88
2023-04-18T04:04:09.431Z,99090.56
2023-04-18T04:06:36.473Z,99094.03
2023-04-18T04:09:03.187Z,99099.28
2023-04-18T04:11:29.844Z,99095.09
2023-04-18T04:13:56.566Z,99100.34
2023-04-18T04:16:23.214Z,99103.00
2023-04-18T04:18:49.865Z,99105.78
2023-04-18T04:21:16.434Z,99108.47
2023-04-18T04:23:43.061Z,99109.41
2023-04-18T04:26:09.959Z,99112.13
2023-04-18T04:28:36.589Z,99107.16
2023-04-18T04:31:08.234Z,99104.63
2023-04-18T04:33:35.784Z,99107.34
2023-04-18T04:36:02.429Z,99110.78
2023-04-18T04:38:31.015Z,99112.59
2023-04-18T04:40:58.287Z,99107.38
2023-04-18T04:43:25.579Z,99109.19
2023-04-18T04:45:53.543Z,99109.19
2023-04-18T04:48:22.288Z,99114.41
2023-04-18T04:50:53.743Z,99118.84
2023-04-18T04:53:20.464Z,99114.50
2023-04-18T04:55:47.192Z,99120.53
2023-04-18T04:58:13.964Z,99120.41
2023-04-18T05:00:40.613Z,99121.31
2023-04-18T05:03:08.468Z,99123.81
2023-04-18T05:05:35.353Z,99123.72
2023-04-18T05:08:02.352Z,99116.78
2023-04-18T05:10:29.145Z,99129.56
2023-04-18T05:12:56.927Z,99129.38
2023-04-18T05:15:27.168Z,99122.97
2023-04-18T05:17:53.976Z,99128.78
2023-04-18T05:20:20.661Z,99124.22
2023-04-18T05:22:47.287Z,99123.94
2023-04-18T05:25:13.904Z,99122.91
2023-04-18T05:27:41.449Z,99121.00
2023-04-18T05:30:08.635Z,99124.47
2023-04-18T05:32:36.090Z,99120.00
2023-04-18T05:35:06.896Z,99131.94
2023-04-18T05:37:36.515Z,99125.72
2023-04-18T05:40:05.059Z,99131.53
2023-04-18T05:42:31.676Z,99121.03
2023-04-18T05:44:58.289Z,99128.66
2023-04-18T05:47:28.371Z,99122.16
2023-04-18T05:49:55.496Z,99127.13
2023-04-18T05:52:22.191Z,99132.97
2023-04-18T05:54:50.654Z,99138.09
2023-04-18T05:57:17.272Z,99138.59
2023-04-18T05:59:43.853Z,99134.03
2023-04-18T06:02:13.822Z,99135.44
2023-04-18T06:04:42.149Z,99130.59
2023-04-18T06:07:11.313Z,99126.00
2023-04-18T06:09:39.283Z,99135.25
2023-04-18T06:12:06.218Z,99140.25
2023-04-18T06:14:32.771Z,99135.75
2023-04-18T06:16:59.620Z,99135.72
2023-04-18T06:19:26.219Z,99140.53
2023-04-18T06:21:53.198Z,99147.09
2023-04-18T06:24:21.833Z,99147.44
2023-04-18T06:26:50.060Z,99135.38
2023-04-18T06:29:18.242Z,99136.72
2023-04-18T06:31:48.360Z,99147.41
2023-04-18T06:34:15.620Z,99143.16
2023-04-18T06:36:44.212Z,99142.81
2023-04-18T06:39:10.800Z,99140.19
2023-04-18T06:41:37.443Z,99142.84
2023-04-18T06:44:04.802Z,99151.38
2023-04-18T06:46:34.031Z,99152.84
2023-04-18T06:49:00.869Z,99152.66
2023-04-18T06:51:27.653Z,99160.38
2023-04-18T06:53:54.383Z,99145.19
2023-04-18T06:56:21.223Z,99152.78
2023-04-18T06:58:48.238Z,99164.09
2023-04-18T07:01:14.886Z,99151.63
2023-04-18T07:03:41.739Z,99156.22
2023-04-18T07:06:11.869Z,99162.41
2023-04-18T07:08:38.619Z,99166.09
2023-04-18T07:11:06.418Z,99166.19
2023-04-18T07:13:33.285Z,99172.53
2023-04-18T07:16:01.917Z,99179.94
2023-04-18T07:18:37.457Z,99174.53
2023-04-18T07:21:08.317Z,99168.41
2023-04-18T07:23:35.468Z,99168.03
2023-04-18T07:26:05.777Z,99175.56
2023-04-18T07:28:33.306Z,99171.75
2023-04-18T07:31:03.002Z,99165.81
2023-04-18T07:33:33.976Z,99169.25
2023-04-18T07:36:03.663Z,99169.75
2023-04-18T07:38:30.704Z,99172.66
2023-04-18T07:40:58.749Z,99176.81
2023-04-18T07:43:25.967Z,99172.50
2023-04-18T07:45:53.180Z,99183.19
2023-04-18T07:48:25.133Z,99182.28
2023-04-18T07:50:51.741Z,99187.31
2023-04-18T07:53:18.378Z,99194.97
2023-04-18T07:55:45.742Z,99187.88
2023-04-18T07:58:12.895Z,99187.16
2023-04-18T08:00:42.028Z,99179.03
2023-04-18T08:03:12.639Z,99195.84
2023-04-18T08:05:40.233Z,99173.06
2023-04-18T08:08:07.869Z,99179.78
2023-04-18T08:10:36.614Z,99169.38
2023-04-18T08:13:06.793Z,99177.25
2023-04-18T08:15:33.454Z,99170.94
2023-04-18T08:18:01.143Z,99167.38
2023-04-18T08:20:28.471Z,99159.16
2023-04-18T08:23:06.814Z,99159.50
2023-04-18T08:25:38.103Z,99165.97
2023-04-18T08:28:05.183Z,99153.50
2023-04-18T08:30:35.418Z,99157.22
2023-04-18T08:33:02.204Z,99150.38
2023-04-18T08:35:29.056Z,99151.84
2023-04-18T08:37:55.770Z,99151.63
2023-04-18T08:40:22.509Z,99147.59
2023-04-18T08:42:50.228Z,99155.88
2023-04-18T08:45:18.701Z,99143.47
2023-04-18T08:47:45.702Z,99148.31
2023-04-18T08:50:14.042Z,99150.66
2023-04-18T08:52:45.969Z,99150.09
2023-04-18T08:55:12.558Z,99149.91
2023-04-18T08:57:39.909Z,99147.94
2023-04-18T09:00:10.731Z,99160.66
2023-04-18T09:02:43.282Z,99158.56
2023-04-18T09:05:19.886Z,99164.53
2023-04-18T09:07:48.110Z,99154.69
2023-04-18T09:10:29.026Z,99157.72
2023-04-18T09:12:57.596Z,99175.53
2023-04-18T09:15:27.392Z,99175.56
2023-04-18T09:17:59.463Z,99184.75
2023-04-18T09:20:35.160Z,99195.38
2023-04-18T09:23:10.971Z,99197.00
2023-04-18T09:25:48.997Z,99198.41
2023-04-18T09:28:30.682Z,99197.47
2023-04-18T09:31:00.939Z,99203.31
2023-04-18T09:33:32.685Z,99199.50
2023-04-18T09:36:28.985Z,99188.88
2023-04-18T09:38:56.891Z,99192.47
2023-04-18T09:41:24.407Z,99203.81
2023-04-18T09:44:11.496Z,99200.94
2023-04-18T09:46:40.409Z,99204.19
2023-04-18T09:49:09.588Z,99206.53
2023-04-18T09:51:40.501Z,99206.53
2023-04-18T09:54:10.901Z,99206.19
2023-04-18T09:56:42.865Z,99200.44
2023-04-18T09:59:14.144Z,99197.44
2023-04-18T10:01:48.151Z,99208.09
2023-04-18T10:04:19.242Z,99208.09
2023-04-18T10:06:46.096Z,99198.94
2023-04-18T10:09:16.192Z,99205.72
2023-04-18T10:11:44.385Z,99198.50
2023-04-18T10:14:16.220Z,99199.03
2023-04-18T10:16:45.542Z,99207.75
2023-04-18T10:19:27.454Z,99196.16
2023-04-18T10:21:57.374Z,99195.97
2023-04-18T10:25:05.013Z,99195.03
2023-04-18T10:27:59.141Z,99201.41
2023-04-18T10:30:41.064Z,99200.13
2023-04-18T10:33:31.178Z,99207.34
2023-04-18T10:36:14.348Z,99194.69
2023-04-18T10:38:49.616Z,99198.09
2023-04-18T10:41:24.379Z,99195.03
2023-04-18T10:44:15.753Z,99203.59
2023-04-18T10:47:10.337Z,99194.00
2023-04-18T10:49:37.231Z,99193.84
2023-04-18T10:52:06.111Z,99199.09
2023-04-18T10:54:48.254Z,99192.56
2023-04-18T10:57:15.482Z,99197.16
2023-04-18T10:59:52.132Z,99187.63
2023-04-18T11:02:32.445Z,99171.63
2023-04-18T11:05:01.328Z,99172.66
2023-04-18T11:07:42.063Z,99172.84
2023-04-18T11:10:12.014Z,99176.06
2023-04-18T11:12:41.135Z,99178.78
2023-04-18T11:15:30.888Z,99166.66
2023-04-18T11:18:03.808Z,99174.44
2023-04-18T11:20:38.720Z,99176.22
2023-04-18T11:23:16.373Z,99171.06
2023-04-18T11:25:46.926Z,99168.25
2023-04-18T11:28:19.067Z,99167.19
2023-04-18T11:30:46.121Z,99176.56
2023-04-18T11:33:14.182Z,99170.41
2023-04-18T11:35:45.792Z,99176.25
2023-04-18T11:38:16.274Z,99168.09
2023-04-18T11:40:51.391Z,99169.53
2023-04-18T11:43:25.142Z,99161.94
2023-04-18T11:45:57.098Z,99176.16
2023-04-18T11:48:37.589Z,99161.13
2023-04-18T11:51:06.852Z,99176.47
2023-04-18T11:53:38.277Z,99164.94
2023-04-18T11:56:05.675Z,99157.06
2023-04-18T11:58:34.995Z,99168.38
2023-04-18T12:01:22.647Z,99172.84
2023-04-18T12:04:09.083Z,99174.72
2023-04-18T12:06:49.147Z,99172.81
2023-04-18T12:09:17.459Z,99168.56
2023-04-18T12:11:45.068Z,99168.34
2023-04-18T12:14:24.329Z,99175.81
2023-04-18T12:16:53.410Z,99173.28
2023-04-18T12:19:32.727Z,99162.50
2023-04-18T12:22:01.429Z,99167.91
2023-04-18T12:24:32.373Z,99165.72
2023-04-18T12:27:01.030Z,99165.91
2023-04-18T12:29:30.438Z,99160.25
2023-04-18T12:31:59.186Z,99175.97
2023-04-18T12:34:27.514Z,99165.78
2023-04-18T12:36:55.014Z,99162.72
2023-04-18T12:39:24.095Z,99166.88
2023-04-18T12:41:51.560Z,99164.31
2023-04-18T12:44:18.453Z,99167.28
2023-04-18T12:46:45.280Z,99162.63
2023-04-18T12:49:12.138Z,99164.75
2023-04-18T12:51:40.096Z,99166.66
2023-04-18T12:54:07.171Z,99160.69
2023-04-18T12:56:34.003Z,99159.19
2023-04-18T12:59:02.334Z,99150.16
2023-04-18T13:01:29.629Z,99156.44
2023-04-18T13:04:10.835Z,99156.69
2023-04-18T13:06:39.376Z,99148.19
2023-04-18T13:09:08.046Z,99166.44
2023-04-18T13:11:34.975Z,99161.34
2023-04-18T13:14:01.633Z,99156.81
2023-04-18T13:16:28.485Z,99164.41
2023-04-18T13:18:57.033Z,99156.47
2023-04-18T13:21:26.386Z,99161.56
2023-04-18T13:23:57.959Z,99163.81
2023-04-18T13:26:26.524Z,99156.59
2023-04-18T13:29:02.117Z,99152.25
2023-04-18T13:31:31.838Z,99150.56
2023-04-18T13:33:59.995Z,99151.78
2023-04-18T13:36:28.012Z,99148.94
2023-04-18T13:38:55.878Z,99140.84
2023-04-18T13:41:24.018Z,99138.06
2023-04-18T13:43:52.689Z,99143.44
2023-04-18T13:46:20.215Z,99136.59
2023-04-18T13:48:47.439Z,99141.53
2023-04-18T13:51:14.901Z,99140.78
2023-04-18T13:53:51.055Z,99136.63
2023-04-18T13:56:18.323Z,99135.56
2023-04-18T13:58:44.941Z,99139.28
2023-04-18T14:01:13.997Z,99130.16
2023-04-18T14:03:43.573Z,99140.84
2023-04-18T14:06:12.932Z,99127.41
2023-04-18T14:08:40.915Z,99130.16
2023-04-18T14:11:07.671Z,99124.91
2023-04-18T14:13:34.322Z,99117.44
2023-04-18T14:16:01.008Z,99119.03
2023-04-18T14:18:28.610Z,99112.75
2023-04-18T14:20:55.257Z,99117.25
2023-04-18T14:23:22.714Z,99115.19
2023-04-18T14:25:49.412Z,99109.88
2023-04-18T14:28:20.864Z,99113.84
2023-04-18T14:30:47.540Z,99115.69
2023-04-18T14:33:14.254Z,99124.28
2023-04-18T14:35:40.911Z,99118.97
2023-04-18T14:38:07.568Z,99107.66
2023-04-18T14:40:34.484Z,99098.59
2023-04-18T14:43:01.224Z,99103.19
2023-04-18T14:45:28.172Z,99102.09
2023-04-18T14:47:55.857Z,99099.59
2023-04-18T14:50:23.268Z,99104.44
2023-04-18T14:52:50.165Z,99100.63
2023-04-18T14:55:17.227Z,99101.28
2023-04-18T14:57:44.173Z,99095.94
2023-04-18T15:00:12.635Z,99099.44
2023-04-18T15:02:39.951Z,99090.66
2023-04-18T15:05:11.329Z,99097.47
2023-04-18T15:07:38.036Z,99092.34
2023-04-18T15:10:05.577Z,99085.94
2023-04-18T15:12:32.814Z,99079.38
2023-04-18T15:15:00.564Z,99091.09
2023-04-18T15:17:27.788Z,99086.44
2023-04-18T15:19:55.051Z,99083.06
2023-04-18T15:22:22.866Z,99081.59
2023-04-18T18:12:59.857Z,99114.72
2023-04-18T18:15:26.533Z,99119.72
2023-04-18T18:17:53.232Z,99114.56
2023-04-18T18:20:20.004Z,99118.69
2023-04-18T18:22:49.548Z,99125.84
2023-04-18T18:25:16.419Z,99121.72
2023-04-18T18:27:43.023Z,99125.56
2023-04-18T18:30:09.863Z,99121.50
2023-04-18T18:32:37.309Z,99134.03
2023-04-18T18:35:06.003Z,99132.28
2023-04-18T18:37:33.384Z,99139.44
2023-04-18T18:40:00.061Z,99138.38
2023-04-18T18:42:26.830Z,99135.06
2023-04-18T18:44:53.622Z,99145.50
2023-04-18T18:47:20.336Z,99142.34
2023-04-18T18:49:48.815Z,99145.09
2023-04-18T18:52:16.078Z,99150.50
2023-04-18T18:54:42.690Z,99145.56
2023-04-18T18:57:09.462Z,99152.97
2023-04-18T18:59:36.110Z,99162.25
2023-04-18T19:02:02.882Z,99164.28
2023-04-18T19:04:29.624Z,99163.84
2023-04-18T19:06:56.378Z,99162.50
2023-04-18T19:09:22.982Z,99165.31
2023-04-18T19:11:49.776Z,99167.00
2023-04-18T19:14:16.533Z,99173.47
2023-04-18T19:16:43.189Z,99176.34
2023-04-18T19:19:10.291Z,99163.34
2023-04-18T19:21:37.249Z,99174.03
2023-04-18T19:24:04.063Z,99176.91
2023-04-18T19:26:30.704Z,99176.34
2023-04-18T19:28:57.356Z,99171.13
2023-04-18T19:31:24.011Z,99168.75
2023-04-18T19:33:50.725Z,99172.31
2023-04-18T19:36:18.571Z,99183.09
2023-04-18T19:38:46.432Z,99175.69
2023-04-18T19:41:13.092Z,99182.75
2023-04-18T19:43:42.605Z,99183.56
2023-04-18T19:46:09.321Z,99190.09
2023-04-18T19:48:36.103Z,99180.59
2023-04-18T19:51:04.837Z,99194.13
2023-04-18T19:53:31.559Z,99191.66
2023-04-18T19:55:58.098Z,99194.53
2023-04-18T19:58:44.785Z,99196.72
2023-04-18T20:01:12.846Z,99189.06
2023-04-18T20:03:40.012Z,99202.91
2023-04-18T20:06:07.322Z,99204.72
2023-04-18T20:08:36.683Z,99217.97
2023-04-18T20:11:17.214Z,99210.09
2023-04-18T20:13:45.607Z,99209.47
2023-04-18T20:16:12.385Z,99214.09
2023-04-18T20:18:41.712Z,99212.50
2023-04-18T20:21:11.092Z,99210.16
2023-04-18T20:23:39.447Z,99216.34
2023-04-18T20:26:06.737Z,99217.38
2023-04-18T20:28:33.362Z,99220.13
2023-04-18T20:31:00.117Z,99215.03
2023-04-18T20:33:26.862Z,99218.94
2023-04-18T20:35:56.168Z,99221.03
2023-04-18T20:38:25.962Z,99229.84
2023-04-18T20:40:53.350Z,99230.75
2023-04-18T20:43:20.144Z,99217.06
2023-04-18T20:45:51.314Z,99230.16
2023-04-18T20:48:19.822Z,99238.22
2023-04-18T20:50:52.179Z,99228.50
2023-04-18T20:53:27.086Z,99228.66
2023-04-18T20:55:53.795Z,99238.38
2023-04-18T20:58:20.666Z,99238.53
2023-04-18T21:00:48.367Z,99242.13
2023-04-18T21:03:17.874Z,99239.66
2023-04-18T21:05:45.172Z,99243.47
2023-04-18T21:08:12.281Z,99241.91
2023-04-18T21:10:39.646Z,99240.16
2023-04-18T21:13:06.468Z,99239.38
2023-04-18T21:15:36.168Z,99246.34
2023-04-18T21:18:04.599Z,99248.31
2023-04-18T21:20:31.227Z,99246.59
2023-04-18T21:22:57.835Z,99262.28
2023-04-18T21:25:24.423Z,99258.91
2023-04-18T21:27:51.046Z,99254.63
2023-04-18T21:30:17.908Z,99264.34
2023-04-18T21:32:45.865Z,99267.75
2023-04-18T21:35:12.888Z,99267.94
2023-04-18T21:37:39.723Z,99269.75
2023-04-18T21:40:08.034Z,99266.25
2023-04-18T21:42:35.621Z,99277.88
2023-04-18T21:45:02.537Z,99266.69
2023-04-18T21:47:31.843Z,99271.22
2023-04-18T21:49:58.998Z,99273.22
2023-04-18T21:52:25.601Z,99279.38
2023-04-18T21:54:52.256Z,99270.00
2023-04-18T21:57:18.823Z,99270.06
2023-04-18T21:59:45.425Z,99265.75
2023-04-18T22:02:12.501Z,99269.38
2023-04-18T22:04:42.815Z,99270.22
2023-04-18T22:07:09.999Z,99266.09
2023-04-18T22:09:37.283Z,99259.31
2023-04-18T22:12:04.504Z,99267.44
2023-04-18T22:14:35.985Z,99270.25
2023-04-18T22:17:04.927Z,99272.00
2023-04-18T22:19:32.421Z,99265.06
2023-04-18T22:21:59.145Z,99262.72
2023-04-18T22:24:26.065Z,99258.31
2023-04-18T22:26:53.166Z,99264.47
2023-04-18T22:29:19.803Z,99260.00
2023-04-18T22:31:46.331Z,99258.25
2023-04-18T22:34:13.109Z,99262.06
2023-04-18T22:36:39.735Z,99262.19
2023-04-18T22:39:06.277Z,99264.09
2023-04-18T22:41:32.848Z,99257.59
2023-04-18T22:43:59.391Z,99258.19
2023-04-18T22:46:28.942Z,99256.63
2023-04-18T22:48:57.268Z,99268.88
2023-04-18T22:51:25.244Z,99262.91
2023-04-18T22:53:51.760Z,99265.81
2023-04-18T22:56:18.301Z,99263.25
2023-04-18T22:58:44.903Z,99259.97
2023-04-18T23:01:11.510Z,99259.25
2023-04-18T23:03:38.438Z,99262.91
2023-04-18T23:06:07.609Z,99267.25
2023-04-18T23:08:35.305Z,99270.91
2023-04-18T23:11:03.812Z,99274.41
2023-04-18T23:13:32.332Z,99273.75
2023-04-18T23:15:58.964Z,99276.56
2023-04-18T23:18:26.021Z,99267.91
2023-04-18T23:20:52.649Z,99266.22
2023-04-18T23:23:19.200Z,99265.38
2023-04-18T23:25:45.906Z,99264.59
2023-04-18T23:28:13.683Z,99264.59
2023-04-18T23:30:40.361Z,99267.22
2023-04-18T23:33:06.984Z,99268.91
2023-04-18T23:35:33.713Z,99270.72
2023-04-18T23:38:00.347Z,99265.56
2023-04-18T23:40:26.969Z,99265.44
2023-04-18T23:42:53.574Z,99269.56
2023-04-18T23:45:20.245Z,99273.03
2023-04-18T23:47:46.925Z,99270.22
2023-04-18T23:50:13.539Z,99275.28
2023-04-18T23:52:40.580Z,99262.84
2023-04-18T23:55:09.023Z,99269.66
2023-04-18T23:57:36.401Z,99266.00
